This is the latest recevied weather packets stored in our database for station/object K0CPM-2. If no packets are shown the sender has not sent any weather packets the latest 10 day(s).
| Time | Temp. | Humidity | Pressure | Rain* | Wind** | Luminosity | Snow |
|---|---|---|---|---|---|---|---|
| 1777591827 | 20° C | 89% | 1008.3 hPa | 18.03 mm | - | - | - |
| 1777590924 | 21.11° C | 90% | 1007.1 hPa | 10.41 mm | - | - | - |
| 1777590022 | 21.67° C | 90% | 1007.3 hPa | 6.6 mm | - | - | - |
| 1777589138 | 22.22° C | 92% | 1007.4 hPa | 4.32 mm | - | - | - |
| 1777588221 | 22.78° C | 92% | 1006.9 hPa | 1.78 mm | - | - | - |
| 1777587320 | 22.78° C | 93% | 1006.8 hPa | 1.27 mm | - | - | - |
| 1777586419 | 22.78° C | 93% | 1006.9 hPa | 0.76 mm | - | - | - |
| 1777585519 | 23.33° C | 92% | 1007 hPa | 0.51 mm | - | - | - |
| 1777584619 | 23.33° C | 92% | 1006.9 hPa | 0 mm | - | - | - |
| 1777583717 | 23.89° C | 91% | 1006.8 hPa | 0 mm | - | - | - |
| 1777582817 | 24.44° C | 90% | 1006.9 hPa | 0 mm | - | - | - |
| 1777581916 | 25° C | 89% | 1007 hPa | 0 mm | - | - | - |
| 1777581015 | 26.11° C | 88% | 1006.9 hPa | 0 mm | - | - | - |
| 1777580114 | 25.56° C | 90% | 1007 hPa | 0 mm | - | - | - |
| 1777579214 | 25° C | 91% | 1007 hPa | 0 mm | - | - | - |
| 1777578313 | 25.56° C | 87% | 1007.9 hPa | 0 mm | - | - | - |
| 1777577414 | 26.11° C | 86% | 1007.9 hPa | 0 mm | - | - | - |
| 1777576511 | 26.67° C | 88% | 1007.9 hPa | 0 mm | - | - | - |
| 1777575615 | 26.67° C | 90% | 1007.9 hPa | 0 mm | - | - | - |
| 1777574712 | 26.67° C | 92% | 1008.3 hPa | 0 mm | - | - | - |
| 1777573806 | 25° C | 89% | 1008.4 hPa | 0.25 mm | - | - | - |
| 1777572906 | 23.33° C | 88% | 1008.8 hPa | 0.76 mm | - | - | - |
| 1777572005 | 22.78° C | 89% | 1009.1 hPa | 2.29 mm | - | - | - |
| 1777571103 | 22.22° C | 90% | 1009.2 hPa | 3.56 mm | - | - | - |
| 1777570203 | 22.22° C | 90% | 1008.4 hPa | 3.81 mm | - | - | - |
* Rain latest hour (hover to see other rain measurements)
** Current wind speed in m/s (hover to see current wind gust speed)